createdAt,value
2023-05-21T00:00:34.094Z,13.48
2023-05-21T00:02:35.743Z,14.82
2023-05-21T00:04:37.604Z,13.90
2023-05-21T00:06:39.164Z,13.65
2023-05-21T00:08:40.920Z,14.18
2023-05-21T00:10:43.885Z,11.95
2023-05-21T00:12:45.424Z,13.55
2023-05-21T00:14:46.968Z,13.35
2023-05-21T00:16:48.566Z,13.65
2023-05-21T00:18:50.436Z,13.88
2023-05-21T00:20:52.076Z,13.57
2023-05-21T00:22:53.605Z,13.25
2023-05-21T00:24:55.132Z,11.40
2023-05-21T00:26:58.040Z,13.25
2023-05-21T00:28:59.927Z,13.57
2023-05-21T00:31:01.562Z,13.05
2023-05-21T00:33:03.255Z,13.70
2023-05-21T00:35:05.938Z,13.90
2023-05-21T00:37:07.516Z,16.15
2023-05-21T00:39:09.048Z,13.82
2023-05-21T00:41:10.968Z,14.55
2023-05-21T00:43:13.978Z,14.35
2023-05-21T00:45:15.710Z,15.15
2023-05-21T00:47:17.298Z,14.40
2023-05-21T00:49:19.155Z,15.15
2023-05-21T00:51:20.903Z,15.18
2023-05-21T00:53:22.521Z,14.27
2023-05-21T00:55:24.404Z,14.05
2023-05-21T00:57:26.716Z,15.32
2023-05-21T00:59:29.682Z,14.70
2023-05-21T01:01:32.004Z,15.98
2023-05-21T01:03:35.223Z,14.60
2023-05-21T01:05:37.016Z,15.48
2023-05-21T01:07:40.610Z,15.30
2023-05-21T01:09:43.373Z,14.30
2023-05-21T01:11:47.482Z,14.68
2023-05-21T01:13:50.029Z,15.85
2023-05-21T01:15:54.291Z,15.57
2023-05-21T01:17:56.147Z,15.52
2023-05-21T01:19:58.484Z,16.42
2023-05-21T01:22:03.551Z,16.50
2023-05-21T01:24:06.660Z,15.68
2023-05-21T01:26:08.310Z,15.20
2023-05-21T01:28:09.928Z,15.65
2023-05-21T01:30:13.190Z,16.40
2023-05-21T01:32:22.190Z,16.92
2023-05-21T01:34:29.990Z,15.98
2023-05-21T01:36:38.423Z,15.85
2023-05-21T01:38:43.544Z,15.90
2023-05-21T01:40:52.959Z,17.20
2023-05-21T01:42:54.686Z,16.73
2023-05-21T01:44:59.223Z,18.02
2023-05-21T01:47:02.085Z,17.08
2023-05-21T01:49:05.113Z,15.95
2023-05-21T01:51:06.770Z,16.02
2023-05-21T01:53:08.310Z,15.75
2023-05-21T01:55:10.184Z,15.25
2023-05-21T01:57:13.219Z,17.13
2023-05-21T01:59:15.073Z,16.95
2023-05-21T02:01:16.608Z,15.85
2023-05-21T02:03:19.061Z,16.77
2023-05-21T02:05:20.892Z,16.17
2023-05-21T02:07:22.413Z,16.65
2023-05-21T02:09:23.922Z,16.95
2023-05-21T02:11:25.439Z,17.50
2023-05-21T02:13:28.309Z,17.50
2023-05-21T02:15:29.884Z,16.38
2023-05-21T02:17:31.561Z,16.02
2023-05-21T02:19:33.141Z,15.48
2023-05-21T02:21:34.715Z,17.27
2023-05-21T02:23:36.230Z,15.88
2023-05-21T02:25:38.077Z,14.75
2023-05-21T02:27:41.346Z,16.27
2023-05-21T02:29:44.238Z,15.82
2023-05-21T02:31:45.747Z,16.33
2023-05-21T02:33:47.283Z,16.92
2023-05-21T02:35:48.966Z,16.52
2023-05-21T02:37:50.495Z,15.85
2023-05-21T02:39:52.015Z,16.63
2023-05-21T02:41:53.536Z,16.42
2023-05-21T02:43:55.045Z,17.88
2023-05-21T02:45:57.979Z,16.42
2023-05-21T02:47:59.563Z,17.08
2023-05-21T02:50:01.383Z,18.35
2023-05-21T02:52:02.978Z,16.30
2023-05-21T02:54:04.480Z,18.83
2023-05-21T02:56:06.210Z,16.33
2023-05-21T02:58:07.758Z,17.63
2023-05-21T03:00:10.618Z,17.35
2023-05-21T03:02:13.692Z,17.30
2023-05-21T03:04:15.284Z,16.33
2023-05-21T03:06:16.833Z,18.40
2023-05-21T03:08:18.340Z,17.60
2023-05-21T03:10:19.892Z,18.08
2023-05-21T03:12:21.438Z,17.15
2023-05-21T03:14:22.970Z,17.02
2023-05-21T03:16:24.586Z,18.60
2023-05-21T03:18:27.509Z,18.40
2023-05-21T03:20:29.235Z,16.50
2023-05-21T03:22:30.830Z,15.82
2023-05-21T03:24:32.408Z,18.30
2023-05-21T03:26:33.940Z,17.70
2023-05-21T03:28:35.642Z,17.25
2023-05-21T03:30:37.165Z,17.23
2023-05-21T03:32:38.824Z,16.92
2023-05-21T03:34:41.726Z,17.50
2023-05-21T03:36:43.357Z,16.23
2023-05-21T03:38:44.953Z,16.92
2023-05-21T03:40:46.584Z,15.90
2023-05-21T03:42:48.268Z,17.77
2023-05-21T03:44:49.808Z,17.13
2023-05-21T03:46:51.317Z,15.52
2023-05-21T03:48:52.812Z,17.52
2023-05-21T03:50:55.920Z,17.85
2023-05-21T03:52:57.620Z,17.52
2023-05-21T03:54:59.139Z,17.27
2023-05-21T03:57:00.675Z,18.05
2023-05-21T03:59:02.309Z,16.95
2023-05-21T04:01:04.135Z,19.50
2023-05-21T04:03:05.856Z,18.63
2023-05-21T04:05:08.260Z,17.52
2023-05-21T04:07:11.133Z,17.52
2023-05-21T04:09:12.650Z,18.08
2023-05-21T04:11:14.224Z,16.80
2023-05-21T04:13:15.735Z,17.52
2023-05-21T04:15:17.247Z,18.73
2023-05-21T04:17:18.794Z,17.05
2023-05-21T04:19:20.386Z,17.30
2023-05-21T04:21:22.008Z,18.63
2023-05-21T04:23:24.906Z,19.25
2023-05-21T04:25:26.474Z,18.95
2023-05-21T04:27:28.014Z,17.83
2023-05-21T04:29:29.687Z,17.10
2023-05-21T04:31:31.416Z,17.20
2023-05-21T04:33:32.981Z,18.23
2023-05-21T04:35:34.750Z,17.27
2023-05-21T04:37:36.400Z,17.25
2023-05-21T04:39:39.306Z,18.30
2023-05-21T04:41:40.853Z,18.35
2023-05-21T04:43:42.366Z,19.42
2023-05-21T04:45:43.877Z,18.23
2023-05-21T04:47:45.424Z,17.58
2023-05-21T04:49:47.131Z,17.05
2023-05-21T04:51:48.675Z,18.08
2023-05-21T04:53:51.415Z,17.17
2023-05-21T04:55:54.295Z,18.50
2023-05-21T04:57:55.814Z,18.15
2023-05-21T04:59:57.328Z,17.88
2023-05-21T05:01:58.907Z,17.90
2023-05-21T05:04:00.575Z,17.15
2023-05-21T05:06:02.164Z,17.77
2023-05-21T05:08:03.908Z,18.92
2023-05-21T05:10:06.310Z,16.40
2023-05-21T05:12:09.349Z,17.77
2023-05-21T05:14:10.844Z,17.60
2023-05-21T05:16:12.416Z,17.10
2023-05-21T05:18:14.868Z,19.17
2023-05-21T05:20:16.521Z,17.67
2023-05-21T05:22:18.033Z,19.60
2023-05-21T05:24:19.605Z,15.88
2023-05-21T05:26:21.171Z,16.73
2023-05-21T05:28:24.077Z,17.00
2023-05-21T05:30:25.642Z,16.75
2023-05-21T05:32:27.214Z,16.33
2023-05-21T05:34:28.817Z,17.35
2023-05-21T05:36:30.411Z,17.40
2023-05-21T05:38:31.923Z,16.90
2023-05-21T05:40:33.437Z,18.00
2023-05-21T05:42:35.027Z,16.58
2023-05-21T05:44:37.945Z,17.15
2023-05-21T05:46:39.590Z,16.15
2023-05-21T05:48:41.215Z,17.60
2023-05-21T05:50:42.846Z,17.40
2023-05-21T05:52:44.376Z,17.08
2023-05-21T05:54:45.954Z,16.98
2023-05-21T05:56:47.507Z,16.67
2023-05-21T05:58:49.008Z,17.45
2023-05-21T06:00:52.078Z,17.88
2023-05-21T06:02:53.709Z,18.85
2023-05-21T06:04:55.330Z,17.90
2023-05-21T06:06:57.156Z,17.70
2023-05-21T06:08:58.662Z,18.35
2023-05-21T06:11:00.198Z,19.00
2023-05-21T06:13:01.877Z,17.42
2023-05-21T06:15:04.041Z,18.88
2023-05-21T06:17:06.906Z,19.60
2023-05-21T06:19:08.506Z,19.17
2023-05-21T06:21:10.069Z,17.02
2023-05-21T06:23:11.700Z,17.73
2023-05-21T06:25:13.244Z,17.17
2023-05-21T06:27:14.948Z,14.50
2023-05-21T06:29:16.473Z,18.60
2023-05-21T06:31:18.084Z,18.48
2023-05-21T06:33:21.015Z,17.67
2023-05-21T06:35:22.740Z,17.83
2023-05-21T06:37:26.432Z,17.85
2023-05-21T06:39:28.225Z,17.73
2023-05-21T06:41:29.781Z,17.65
2023-05-21T06:43:31.290Z,16.75
2023-05-21T06:45:32.808Z,18.02
2023-05-21T06:47:34.417Z,17.02
2023-05-21T06:49:37.335Z,15.45
2023-05-21T06:51:38.874Z,18.67
2023-05-21T06:53:40.576Z,17.00
2023-05-21T06:55:42.185Z,16.55
2023-05-21T06:57:43.705Z,17.23
2023-05-21T06:59:45.238Z,17.02
2023-05-21T07:01:46.832Z,17.40
2023-05-21T07:03:48.534Z,15.55
2023-05-21T07:05:51.467Z,15.32
2023-05-21T07:07:52.992Z,17.42
2023-05-21T07:09:54.496Z,15.48
2023-05-21T07:11:56.069Z,13.52
2023-05-21T07:13:58.863Z,13.23
2023-05-21T07:16:00.382Z,15.50
2023-05-21T07:18:01.992Z,12.98
2023-05-21T07:20:03.774Z,14.18
2023-05-21T07:22:06.717Z,15.05
2023-05-21T07:24:08.246Z,15.57
2023-05-21T07:26:10.265Z,13.65
2023-05-21T07:28:11.812Z,13.38
2023-05-21T07:30:14.214Z,15.02
2023-05-21T07:32:15.903Z,13.45
2023-05-21T07:34:17.529Z,14.85
2023-05-21T07:36:19.115Z,13.65
2023-05-21T07:38:22.019Z,15.10
2023-05-21T07:40:23.562Z,13.90
2023-05-21T07:42:25.727Z,13.45
2023-05-21T07:44:27.268Z,14.98
2023-05-21T07:46:28.814Z,15.00
2023-05-21T07:48:30.367Z,13.48
2023-05-21T07:50:31.935Z,13.80
2023-05-21T07:52:33.572Z,13.35
2023-05-21T07:54:36.525Z,13.68
2023-05-21T07:56:38.062Z,14.02
2023-05-21T07:58:39.629Z,13.63
2023-05-21T08:00:42.983Z,12.85
2023-05-21T08:02:45.041Z,12.20
2023-05-21T08:04:46.787Z,13.77
2023-05-21T08:06:48.466Z,11.30
2023-05-21T08:08:50.096Z,12.43
2023-05-21T08:10:53.004Z,13.38
2023-05-21T08:12:54.616Z,12.68
2023-05-21T08:14:57.332Z,13.07
2023-05-21T08:16:58.862Z,10.70
2023-05-21T08:19:00.551Z,12.95
2023-05-21T08:21:02.149Z,12.02
2023-05-21T08:23:03.681Z,12.55
2023-05-21T08:25:05.964Z,12.82
2023-05-21T08:27:08.848Z,15.30
2023-05-21T08:29:10.470Z,12.45
2023-05-21T08:31:12.108Z,10.93
2023-05-21T08:33:13.645Z,13.02
2023-05-21T08:35:15.325Z,11.93
2023-05-21T08:37:16.927Z,11.65
2023-05-21T08:39:18.477Z,12.95
2023-05-21T08:41:21.288Z,11.50
2023-05-21T08:43:27.059Z,12.27
2023-05-21T08:45:34.502Z,12.35
2023-05-21T08:47:36.468Z,11.75
2023-05-21T08:49:38.168Z,12.70
2023-05-21T08:51:39.796Z,11.40
2023-05-21T08:53:41.540Z,15.00
2023-05-21T08:55:43.492Z,11.77
2023-05-21T08:57:45.014Z,11.75
2023-05-21T08:59:47.873Z,11.32
2023-05-21T09:01:49.600Z,11.95
2023-05-21T09:03:54.414Z,11.48
2023-05-21T09:05:59.225Z,10.73
2023-05-21T09:08:06.102Z,11.35
2023-05-21T09:10:12.090Z,10.38
2023-05-21T09:12:13.711Z,10.70
2023-05-21T09:14:16.738Z,11.27
2023-05-21T09:16:19.688Z,10.52
2023-05-21T09:18:21.192Z,11.00
2023-05-21T09:20:25.101Z,10.35
2023-05-21T09:22:27.578Z,11.13
2023-05-21T09:24:32.505Z,10.88
2023-05-21T09:26:35.231Z,10.40
2023-05-21T09:28:36.787Z,11.55
2023-05-21T09:30:44.380Z,10.75
2023-05-21T09:32:54.586Z,12.25
2023-05-21T09:34:56.159Z,10.38
2023-05-21T09:36:57.732Z,12.25
2023-05-21T09:38:59.489Z,12.35
2023-05-21T09:41:04.818Z,12.07
2023-05-21T09:43:06.337Z,11.20
2023-05-21T09:45:09.406Z,11.10
2023-05-21T09:47:10.948Z,11.07
2023-05-21T09:49:24.165Z,11.40
2023-05-21T09:51:25.715Z,11.73
2023-05-21T09:53:29.035Z,11.38
2023-05-21T09:55:30.551Z,10.93
2023-05-21T09:57:32.161Z,12.40
2023-05-21T09:59:37.218Z,11.25
2023-05-21T10:01:38.856Z,11.25
2023-05-21T10:03:42.598Z,11.82
2023-05-21T10:05:45.541Z,11.93
2023-05-21T10:07:50.239Z,11.95
2023-05-21T10:09:54.344Z,11.65
2023-05-21T10:11:57.319Z,9.77
2023-05-21T10:14:04.597Z,10.98
2023-05-21T10:16:06.549Z,10.13
2023-05-21T10:18:10.124Z,12.13
2023-05-21T10:20:12.428Z,11.85
2023-05-21T10:22:15.591Z,12.38
2023-05-21T10:24:17.742Z,12.73
2023-05-21T10:26:19.751Z,12.77
2023-05-21T10:28:23.865Z,11.82
2023-05-21T10:30:25.559Z,12.27
2023-05-21T10:32:28.201Z,12.32
2023-05-21T10:34:31.202Z,10.15
2023-05-21T10:36:34.189Z,11.60
2023-05-21T10:38:38.376Z,11.70
2023-05-21T10:40:40.149Z,11.88
2023-05-21T10:43:21.768Z,11.82
2023-05-21T10:45:33.343Z,11.68
2023-05-21T10:47:47.928Z,11.90
2023-05-21T10:50:05.455Z,9.90
2023-05-21T10:52:19.202Z,11.07
2023-05-21T10:54:53.281Z,10.88
2023-05-21T10:57:04.627Z,10.25
2023-05-21T10:59:20.365Z,10.45
2023-05-21T11:01:22.561Z,11.45
2023-05-21T11:03:25.239Z,11.07
2023-05-21T11:05:39.319Z,12.15
2023-05-21T11:07:52.060Z,12.25
2023-05-21T11:09:53.602Z,12.02
2023-05-21T11:11:58.978Z,12.32
2023-05-21T11:14:00.534Z,12.15
2023-05-21T11:16:14.212Z,13.10
2023-05-21T11:18:15.754Z,11.57
2023-05-21T11:20:17.277Z,11.80
2023-05-21T11:22:23.697Z,13.00
2023-05-21T11:24:25.444Z,10.85
2023-05-21T11:26:28.505Z,12.10
2023-05-21T11:28:34.332Z,11.55
2023-05-21T11:30:36.389Z,11.70
2023-05-21T11:32:39.028Z,11.10
2023-05-21T11:34:42.549Z,10.45
2023-05-21T11:36:45.548Z,9.85
2023-05-21T11:39:08.635Z,10.93
2023-05-21T11:41:10.202Z,11.18
2023-05-21T11:43:11.741Z,9.88
2023-05-21T11:45:17.601Z,11.70
2023-05-21T11:47:19.838Z,10.63
2023-05-21T11:49:22.330Z,10.52
2023-05-21T11:51:24.721Z,10.70
2023-05-21T11:53:29.330Z,10.23
2023-05-21T11:55:30.906Z,10.43
2023-05-21T11:57:32.636Z,9.38
2023-05-21T11:59:34.301Z,10.32
2023-05-21T12:01:37.149Z,10.50
2023-05-21T12:03:38.917Z,9.93
2023-05-21T12:05:44.788Z,9.60
2023-05-21T12:07:47.501Z,9.57
2023-05-21T12:09:50.243Z,10.32
2023-05-21T12:11:53.093Z,9.25
2023-05-21T12:13:54.701Z,10.48
2023-05-21T12:15:56.371Z,9.25
2023-05-21T12:17:59.388Z,10.93
2023-05-21T12:20:01.203Z,9.55
2023-05-21T12:22:02.934Z,9.40
2023-05-21T12:24:04.736Z,9.30
2023-05-21T12:26:06.402Z,8.23
2023-05-21T12:28:07.938Z,8.75
2023-05-21T12:30:09.851Z,10.85
2023-05-21T12:32:13.763Z,9.38
2023-05-21T12:34:36.692Z,8.55
2023-05-21T12:36:38.313Z,9.75
2023-05-21T12:38:39.853Z,9.68
2023-05-21T12:40:41.620Z,8.70
2023-05-21T12:42:44.068Z,11.77
2023-05-21T12:44:47.155Z,9.25
2023-05-21T12:46:48.755Z,9.38
2023-05-21T12:48:52.762Z,9.73
2023-05-21T12:50:58.478Z,9.30
2023-05-21T12:53:00.253Z,9.23
2023-05-21T12:55:01.801Z,9.48
2023-05-21T12:57:07.805Z,8.90
2023-05-21T12:59:13.165Z,7.70
2023-05-21T13:01:14.765Z,9.15
2023-05-21T13:03:16.405Z,9.25
2023-05-21T13:05:18.624Z,9.68
2023-05-21T13:07:21.624Z,9.55
2023-05-21T13:09:23.191Z,9.77
2023-05-21T13:11:24.736Z,8.52
2023-05-21T13:13:26.245Z,8.80
2023-05-21T13:15:27.786Z,9.65
2023-05-21T13:17:29.839Z,7.90
2023-05-21T13:19:31.413Z,7.88
2023-05-21T13:21:33.000Z,8.38
2023-05-21T13:23:35.891Z,8.75
2023-05-21T13:25:37.421Z,8.80
2023-05-21T13:27:39.109Z,9.38
2023-05-21T13:29:40.635Z,10.88
2023-05-21T13:31:42.570Z,9.45
2023-05-21T13:33:44.135Z,9.23
2023-05-21T13:35:45.726Z,8.52
2023-05-21T13:37:47.296Z,8.98
2023-05-21T13:39:50.191Z,8.63
2023-05-21T13:41:51.768Z,8.93
2023-05-21T13:43:53.320Z,9.15
2023-05-21T13:45:55.066Z,8.90
2023-05-21T13:47:56.719Z,8.35
2023-05-21T13:49:58.403Z,8.65
2023-05-21T13:52:00.152Z,7.45
2023-05-21T13:54:01.758Z,7.78
2023-05-21T13:56:05.318Z,8.68
2023-05-21T13:58:06.856Z,7.70
2023-05-21T14:00:09.437Z,8.13
2023-05-21T14:02:11.405Z,9.18
2023-05-21T14:04:12.974Z,7.93
2023-05-21T14:06:14.545Z,6.88
2023-05-21T14:08:16.125Z,7.20
2023-05-21T14:10:17.672Z,7.32
2023-05-21T14:12:20.560Z,8.30
2023-05-21T14:14:22.360Z,7.63
2023-05-21T14:16:24.127Z,7.32
2023-05-21T14:18:25.697Z,7.18
2023-05-21T14:20:27.243Z,7.40
2023-05-21T14:22:28.777Z,8.73
2023-05-21T14:24:30.323Z,7.00
2023-05-21T14:26:31.895Z,8.23
2023-05-21T14:28:34.819Z,7.40
2023-05-21T14:30:36.383Z,7.78
2023-05-21T14:32:37.974Z,7.80
2023-05-21T14:34:39.587Z,7.88
2023-05-21T14:36:41.129Z,7.68
2023-05-21T14:38:42.863Z,7.15
2023-05-21T14:40:44.652Z,7.18
2023-05-21T14:42:46.273Z,6.47
2023-05-21T14:44:49.287Z,7.43
2023-05-21T14:46:50.870Z,7.60
2023-05-21T14:48:52.397Z,7.20
2023-05-21T14:50:54.080Z,7.18
2023-05-21T14:52:55.598Z,7.35
2023-05-21T14:54:57.100Z,6.38
2023-05-21T14:56:58.641Z,7.07
2023-05-21T14:59:00.170Z,6.97
2023-05-21T15:01:03.440Z,7.20
2023-05-21T15:07:08.356Z,7.47
2023-05-21T15:09:09.893Z,7.05
2023-05-21T15:11:11.501Z,8.30
2023-05-21T15:13:13.165Z,7.40
2023-05-21T15:15:14.684Z,6.70
2023-05-21T15:17:17.549Z,6.40
2023-05-21T15:19:19.161Z,7.38
2023-05-21T15:21:20.751Z,7.38
2023-05-21T15:23:22.292Z,7.38
2023-05-21T15:25:23.893Z,6.97
2023-05-21T15:27:25.677Z,7.15
2023-05-21T15:29:27.222Z,7.47
2023-05-21T15:31:28.728Z,7.55
2023-05-21T15:33:31.745Z,6.82
2023-05-21T15:35:36.472Z,8.02
2023-05-21T15:37:38.426Z,7.13
2023-05-21T15:39:39.927Z,7.47
2023-05-21T15:41:42.012Z,6.28
2023-05-21T15:43:43.608Z,6.55
2023-05-21T15:45:45.180Z,6.22
2023-05-21T15:47:46.769Z,6.07
2023-05-21T15:49:49.690Z,5.30
2023-05-21T15:51:51.296Z,6.28
2023-05-21T15:53:52.834Z,5.47
2023-05-21T15:55:54.404Z,5.45
2023-05-21T15:57:55.909Z,4.95
2023-05-21T15:59:57.441Z,5.03
2023-05-21T16:01:59.058Z,4.90
2023-05-21T16:04:01.316Z,5.05
2023-05-21T16:06:04.344Z,4.38
2023-05-21T16:08:05.870Z,5.07
2023-05-21T16:10:09.644Z,4.20
2023-05-21T16:12:11.173Z,5.32
2023-05-21T16:14:12.732Z,5.18
2023-05-21T16:16:14.378Z,5.25
2023-05-21T16:18:15.906Z,6.00
2023-05-21T16:20:17.586Z,5.72
2023-05-21T16:22:20.472Z,5.05
2023-05-21T16:24:22.003Z,6.95
2023-05-21T16:26:23.588Z,6.88
2023-05-21T16:28:25.280Z,6.53
2023-05-21T16:30:26.832Z,4.95
2023-05-21T16:32:28.568Z,4.72
2023-05-21T16:34:30.456Z,4.28
2023-05-21T16:36:32.068Z,4.03
2023-05-21T16:38:34.939Z,4.40
2023-05-21T16:40:36.540Z,3.75
2023-05-21T16:42:38.139Z,4.68
2023-05-21T16:44:39.698Z,4.07
2023-05-21T16:46:41.338Z,5.10
2023-05-21T16:48:42.909Z,4.30
2023-05-21T16:50:44.492Z,3.42
2023-05-21T16:52:46.056Z,4.28
2023-05-21T16:54:48.971Z,4.25
2023-05-21T16:56:50.508Z,4.22
2023-05-21T16:58:52.062Z,4.40
2023-05-21T17:00:53.587Z,4.10
2023-05-21T17:02:55.358Z,4.85
2023-05-21T17:04:57.072Z,4.22
2023-05-21T17:06:58.608Z,6.00
2023-05-21T17:09:00.147Z,6.20
2023-05-21T17:11:03.088Z,7.38
2023-05-21T17:13:17.720Z,6.88
2023-05-21T17:15:23.495Z,7.40
2023-05-21T17:17:25.100Z,7.43
2023-05-21T17:19:26.730Z,7.30
2023-05-21T17:21:28.295Z,7.85
2023-05-21T17:23:29.822Z,7.07
2023-05-21T17:25:34.202Z,8.00
2023-05-21T17:27:37.369Z,8.30
2023-05-21T17:29:39.095Z,8.68
2023-05-21T17:31:40.823Z,9.45
2023-05-21T17:33:42.415Z,9.05
2023-05-21T17:35:44.101Z,7.80
2023-05-21T17:37:45.693Z,8.35
2023-05-21T17:39:47.242Z,8.90
2023-05-21T17:41:48.806Z,11.40
2023-05-21T17:43:51.782Z,9.75
2023-05-21T17:45:53.312Z,9.73
2023-05-21T17:47:56.642Z,8.88
2023-05-21T17:49:59.578Z,9.60
2023-05-21T17:52:01.152Z,9.77
2023-05-21T17:54:02.836Z,7.57
2023-05-21T17:56:04.982Z,8.43
2023-05-21T17:58:06.722Z,8.18
2023-05-21T18:00:10.590Z,7.80
2023-05-21T18:02:12.485Z,7.93
2023-05-21T18:04:14.046Z,7.55
2023-05-21T18:06:15.613Z,8.73
2023-05-21T18:08:17.181Z,7.90
2023-05-21T18:10:18.748Z,8.18
2023-05-21T18:12:20.326Z,8.40
2023-05-21T18:14:21.847Z,8.95
2023-05-21T18:16:24.752Z,7.97
2023-05-21T18:18:26.418Z,7.72
2023-05-21T18:20:27.936Z,8.35
2023-05-21T18:22:29.474Z,8.07
2023-05-21T18:24:30.997Z,8.02
2023-05-21T18:26:32.600Z,8.52
2023-05-21T18:28:35.225Z,8.70
2023-05-21T18:30:37.099Z,9.18
2023-05-21T18:32:40.213Z,8.93
2023-05-21T18:34:41.792Z,8.02
2023-05-21T18:36:43.355Z,8.65
2023-05-21T18:38:44.999Z,8.18
2023-05-21T18:40:46.590Z,9.00
2023-05-21T18:42:48.482Z,8.85
2023-05-21T18:44:50.745Z,8.90
2023-05-21T18:46:53.798Z,8.48
2023-05-21T18:48:58.959Z,8.13
2023-05-21T18:51:00.531Z,8.95
2023-05-21T18:53:02.210Z,9.93
2023-05-21T18:55:04.346Z,8.57
2023-05-21T18:57:06.163Z,10.20
2023-05-21T18:59:07.745Z,9.20
2023-05-21T19:01:09.433Z,8.63
2023-05-21T19:03:11.119Z,8.45
2023-05-21T19:05:14.089Z,8.40
2023-05-21T19:07:15.736Z,9.43
2023-05-21T19:09:17.277Z,11.30
2023-05-21T19:11:19.082Z,13.98
2023-05-21T19:13:20.657Z,10.82
2023-05-21T19:15:22.216Z,10.00
2023-05-21T19:17:23.818Z,10.70
2023-05-21T19:19:25.449Z,8.70
2023-05-21T19:21:28.511Z,8.77
2023-05-21T19:23:33.797Z,9.70
2023-05-21T19:25:42.928Z,9.15
2023-05-21T19:27:44.666Z,9.48
2023-05-21T19:29:46.299Z,10.05
2023-05-21T19:31:47.868Z,9.50
2023-05-21T19:33:49.566Z,9.32
2023-05-21T19:35:51.254Z,9.27
2023-05-21T19:37:54.175Z,10.45
2023-05-21T19:39:56.196Z,11.30
2023-05-21T19:41:57.735Z,14.13
2023-05-21T19:43:59.267Z,14.10
2023-05-21T19:46:00.846Z,12.60
2023-05-21T19:48:02.661Z,14.20
2023-05-21T19:50:04.986Z,10.73
2023-05-21T19:52:06.687Z,13.27
2023-05-21T19:54:09.646Z,12.05
2023-05-21T19:56:11.170Z,11.27
2023-05-21T19:58:12.714Z,11.35
2023-05-21T20:00:15.231Z,15.80
2023-05-21T20:02:16.824Z,13.55
2023-05-21T20:04:18.460Z,10.38
2023-05-21T20:06:20.246Z,10.65
2023-05-21T20:08:21.820Z,10.00
2023-05-21T20:10:24.729Z,10.25
2023-05-21T20:12:26.460Z,9.82
2023-05-21T20:14:28.022Z,10.10
2023-05-21T20:16:29.574Z,10.35
2023-05-21T20:18:31.095Z,9.73
2023-05-21T20:20:35.699Z,9.98
2023-05-21T20:22:37.309Z,10.10
2023-05-21T20:24:38.844Z,9.90
2023-05-21T20:26:41.795Z,9.27
2023-05-21T20:28:43.498Z,9.73
2023-05-21T20:30:55.662Z,9.75
2023-05-21T20:32:57.235Z,9.73
2023-05-21T20:35:03.251Z,9.13
2023-05-21T20:37:05.834Z,10.38
2023-05-21T20:39:07.386Z,9.98
2023-05-21T20:41:08.942Z,9.95
2023-05-21T20:43:11.824Z,10.27
2023-05-21T20:45:13.361Z,9.90
2023-05-21T20:47:14.887Z,9.80
2023-05-21T20:49:16.422Z,9.98
2023-05-21T20:51:17.972Z,10.13
2023-05-21T20:53:19.461Z,10.82
2023-05-21T20:55:21.019Z,10.93
2023-05-21T20:57:22.565Z,10.30
2023-05-21T20:59:25.865Z,10.68
2023-05-21T21:01:28.277Z,10.65
2023-05-21T21:03:31.162Z,9.48
2023-05-21T21:05:32.722Z,11.93
2023-05-21T21:07:35.409Z,10.00
2023-05-21T21:09:36.968Z,10.30
2023-05-21T21:11:38.521Z,9.20
2023-05-21T21:13:40.126Z,10.10
2023-05-21T21:15:43.035Z,11.13
2023-05-21T21:17:44.692Z,11.43
2023-05-21T21:19:46.260Z,10.23
2023-05-21T21:21:47.849Z,10.70
2023-05-21T21:23:49.332Z,10.82
2023-05-21T21:25:50.900Z,10.60
2023-05-21T21:27:52.437Z,9.82
2023-05-21T21:29:54.020Z,10.30
2023-05-21T21:31:57.175Z,10.88
2023-05-21T21:33:58.754Z,11.23
2023-05-21T21:36:00.401Z,9.88
2023-05-21T21:38:02.896Z,11.30
2023-05-21T21:40:05.686Z,11.75
2023-05-21T21:42:07.478Z,10.50
2023-05-21T21:44:09.045Z,12.35
2023-05-21T21:46:10.625Z,11.50
2023-05-21T21:48:13.599Z,10.50
2023-05-21T21:50:15.219Z,10.95
2023-05-21T21:52:17.629Z,11.05
2023-05-21T21:54:19.193Z,11.38
2023-05-21T21:56:20.701Z,10.43
2023-05-21T21:58:22.514Z,10.68
2023-05-21T22:00:24.288Z,11.23
2023-05-21T22:02:25.870Z,10.65
2023-05-21T22:04:28.878Z,11.15
2023-05-21T22:06:30.438Z,12.50
2023-05-21T22:08:32.002Z,11.98
2023-05-21T22:10:33.658Z,11.85
2023-05-21T22:12:35.199Z,10.40
2023-05-21T22:14:36.860Z,11.02
2023-05-21T22:16:38.444Z,11.65
2023-05-21T22:18:41.003Z,11.27
2023-05-21T22:20:44.662Z,11.70
2023-05-21T22:22:46.215Z,11.30
2023-05-21T22:24:47.730Z,11.65
2023-05-21T22:26:49.301Z,11.20
2023-05-21T22:28:50.941Z,10.18
2023-05-21T22:30:52.486Z,10.38
2023-05-21T22:32:54.146Z,11.80
2023-05-21T22:34:55.718Z,14.20
2023-05-21T22:36:58.618Z,12.70
2023-05-21T22:39:00.159Z,11.85
2023-05-21T22:41:01.751Z,11.57
2023-05-21T22:43:03.401Z,11.88
2023-05-21T22:45:05.837Z,12.40
2023-05-21T22:47:07.392Z,12.05
2023-05-21T22:49:08.974Z,11.50
2023-05-21T22:51:10.520Z,12.57
2023-05-21T22:53:13.663Z,12.30
2023-05-21T22:55:16.204Z,11.27
2023-05-21T22:57:18.132Z,9.45
2023-05-21T22:59:19.652Z,10.98
2023-05-21T23:01:21.284Z,11.65
2023-05-21T23:03:22.897Z,11.70
2023-05-21T23:05:24.513Z,10.90
2023-05-21T23:07:26.118Z,11.02
2023-05-21T23:09:29.014Z,12.38
2023-05-21T23:11:30.647Z,11.45
2023-05-21T23:13:32.213Z,11.52
2023-05-21T23:15:33.808Z,12.35
2023-05-21T23:17:35.432Z,11.85
2023-05-21T23:19:37.023Z,12.25
2023-05-21T23:21:38.594Z,10.75
2023-05-21T23:23:40.112Z,10.10
2023-05-21T23:25:43.083Z,11.27
2023-05-21T23:27:44.646Z,10.88
2023-05-21T23:29:46.164Z,12.10
2023-05-21T23:31:47.871Z,11.52
2023-05-21T23:33:49.867Z,11.55
2023-05-21T23:35:51.399Z,12.30
2023-05-21T23:37:52.923Z,12.68
2023-05-21T23:39:54.435Z,12.18
2023-05-21T23:41:57.363Z,11.30
2023-05-21T23:43:58.864Z,11.38
2023-05-21T23:46:00.463Z,10.88
2023-05-21T23:48:02.049Z,11.88
2023-05-21T23:50:04.102Z,11.57
2023-05-21T23:52:06.846Z,12.10
2023-05-21T23:54:08.398Z,11.90
2023-05-21T23:56:09.930Z,11.88
2023-05-21T23:58:12.801Z,11.27
